sensor_id;sensor_type;location;lat;lon;timestamp;P1;durP1;ratioP1;P2;durP2;ratioP2
19107;SDS011;9686;48.832;9.126;2022-08-19T00:01:19;13.50;;;11.33;;
19107;SDS011;9686;48.832;9.126;2022-08-19T00:03:45;12.67;;;11.37;;
19107;SDS011;9686;48.832;9.126;2022-08-19T00:06:10;13.13;;;11.73;;
19107;SDS011;9686;48.832;9.126;2022-08-19T00:08:35;15.50;;;11.97;;
19107;SDS011;9686;48.832;9.126;2022-08-19T00:11:01;12.13;;;10.93;;
19107;SDS011;9686;48.832;9.126;2022-08-19T00:13:26;12.30;;;10.37;;
19107;SDS011;9686;48.832;9.126;2022-08-19T00:15:53;13.87;;;11.40;;
19107;SDS011;9686;48.832;9.126;2022-08-19T00:18:19;15.10;;;12.10;;
19107;SDS011;9686;48.832;9.126;2022-08-19T00:20:44;14.93;;;12.07;;
19107;SDS011;9686;48.832;9.126;2022-08-19T00:23:10;13.27;;;11.83;;
19107;SDS011;9686;48.832;9.126;2022-08-19T00:25:35;13.97;;;11.00;;
19107;SDS011;9686;48.832;9.126;2022-08-19T00:28:01;14.70;;;12.53;;
19107;SDS011;9686;48.832;9.126;2022-08-19T00:30:27;13.63;;;10.73;;
19107;SDS011;9686;48.832;9.126;2022-08-19T00:32:53;13.40;;;11.43;;
19107;SDS011;9686;48.832;9.126;2022-08-19T00:35:20;12.30;;;11.00;;
19107;SDS011;9686;48.832;9.126;2022-08-19T00:37:46;12.70;;;11.00;;
19107;SDS011;9686;48.832;9.126;2022-08-19T00:40:13;12.67;;;11.37;;
19107;SDS011;9686;48.832;9.126;2022-08-19T00:42:39;14.60;;;12.53;;
19107;SDS011;9686;48.832;9.126;2022-08-19T00:45:08;14.23;;;11.80;;
19107;SDS011;9686;48.832;9.126;2022-08-19T00:47:38;13.00;;;11.13;;
19107;SDS011;9686;48.832;9.126;2022-08-19T00:50:04;14.27;;;11.93;;
19107;SDS011;9686;48.832;9.126;2022-08-19T00:52:32;13.90;;;11.70;;
19107;SDS011;9686;48.832;9.126;2022-08-19T00:55:00;13.03;;;11.63;;
19107;SDS011;9686;48.832;9.126;2022-08-19T00:57:30;13.53;;;12.10;;
19107;SDS011;9686;48.832;9.126;2022-08-19T00:59:59;12.80;;;11.50;;
19107;SDS011;9686;48.832;9.126;2022-08-19T01:02:26;13.27;;;11.50;;
19107;SDS011;9686;48.832;9.126;2022-08-19T01:04:52;12.77;;;11.43;;
19107;SDS011;9686;48.832;9.126;2022-08-19T01:07:18;13.87;;;11.40;;
19107;SDS011;9686;48.832;9.126;2022-08-19T01:09:44;14.13;;;11.90;;
19107;SDS011;9686;48.832;9.126;2022-08-19T01:12:09;13.33;;;11.77;;
19107;SDS011;9686;48.832;9.126;2022-08-19T01:14:35;14.53;;;11.80;;
19107;SDS011;9686;48.832;9.126;2022-08-19T01:17:03;13.57;;;11.27;;
19107;SDS011;9686;48.832;9.126;2022-08-19T01:19:34;13.07;;;11.67;;
19107;SDS011;9686;48.832;9.126;2022-08-19T01:22:08;13.93;;;12.43;;
19107;SDS011;9686;48.832;9.126;2022-08-19T01:24:39;13.47;;;12.07;;
19107;SDS011;9686;48.832;9.126;2022-08-19T01:27:06;14.13;;;12.47;;
19107;SDS011;9686;48.832;9.126;2022-08-19T01:29:32;13.17;;;11.20;;
19107;SDS011;9686;48.832;9.126;2022-08-19T01:31:58;14.53;;;12.97;;
19107;SDS011;9686;48.832;9.126;2022-08-19T01:34:24;15.67;;;12.50;;
19107;SDS011;9686;48.832;9.126;2022-08-19T01:36:50;13.90;;;12.50;;
19107;SDS011;9686;48.832;9.126;2022-08-19T01:39:17;17.77;;;13.40;;
19107;SDS011;9686;48.832;9.126;2022-08-19T01:41:46;16.53;;;13.43;;
19107;SDS011;9686;48.832;9.126;2022-08-19T01:44:12;15.53;;;13.23;;
19107;SDS011;9686;48.832;9.126;2022-08-19T01:46:39;15.83;;;13.50;;
19107;SDS011;9686;48.832;9.126;2022-08-19T01:49:06;16.13;;;13.57;;
19107;SDS011;9686;48.832;9.126;2022-08-19T01:51:32;15.73;;;14.13;;
19107;SDS011;9686;48.832;9.126;2022-08-19T01:53:58;13.97;;;12.47;;
19107;SDS011;9686;48.832;9.126;2022-08-19T01:56:24;16.60;;;14.07;;
19107;SDS011;9686;48.832;9.126;2022-08-19T01:58:51;15.60;;;13.53;;
19107;SDS011;9686;48.832;9.126;2022-08-19T02:01:23;17.30;;;13.53;;
19107;SDS011;9686;48.832;9.126;2022-08-19T02:03:48;15.67;;;13.43;;
19107;SDS011;9686;48.832;9.126;2022-08-19T02:06:13;16.07;;;14.27;;
19107;SDS011;9686;48.832;9.126;2022-08-19T02:08:39;15.43;;;13.83;;
19107;SDS011;9686;48.832;9.126;2022-08-19T02:11:05;17.73;;;14.97;;
19107;SDS011;9686;48.832;9.126;2022-08-19T02:13:31;16.90;;;14.37;;
19107;SDS011;9686;48.832;9.126;2022-08-19T02:15:57;18.10;;;15.10;;
19107;SDS011;9686;48.832;9.126;2022-08-19T02:18:23;20.30;;;14.97;;
19107;SDS011;9686;48.832;9.126;2022-08-19T02:20:48;18.07;;;14.67;;
19107;SDS011;9686;48.832;9.126;2022-08-19T02:23:15;18.43;;;14.10;;
19107;SDS011;9686;48.832;9.126;2022-08-19T02:25:42;18.30;;;16.00;;
19107;SDS011;9686;48.832;9.126;2022-08-19T02:28:10;18.67;;;16.47;;
19107;SDS011;9686;48.832;9.126;2022-08-19T02:30:36;19.60;;;15.80;;
19107;SDS011;9686;48.832;9.126;2022-08-19T02:33:03;21.00;;;16.07;;
19107;SDS011;9686;48.832;9.126;2022-08-19T02:35:28;16.53;;;14.70;;
19107;SDS011;9686;48.832;9.126;2022-08-19T02:37:53;18.67;;;14.63;;
19107;SDS011;9686;48.832;9.126;2022-08-19T02:40:37;18.67;;;16.03;;
19107;SDS011;9686;48.832;9.126;2022-08-19T02:43:03;17.90;;;15.67;;
19107;SDS011;9686;48.832;9.126;2022-08-19T02:45:35;19.63;;;15.80;;
19107;SDS011;9686;48.832;9.126;2022-08-19T02:48:03;20.90;;;17.03;;
19107;SDS011;9686;48.832;9.126;2022-08-19T02:50:29;18.63;;;15.47;;
19107;SDS011;9686;48.832;9.126;2022-08-19T02:52:55;18.77;;;16.10;;
19107;SDS011;9686;48.832;9.126;2022-08-19T02:55:20;17.23;;;15.23;;
19107;SDS011;9686;48.832;9.126;2022-08-19T02:57:46;20.87;;;16.77;;
19107;SDS011;9686;48.832;9.126;2022-08-19T03:00:12;19.70;;;17.57;;
19107;SDS011;9686;48.832;9.126;2022-08-19T03:02:38;20.10;;;17.60;;
19107;SDS011;9686;48.832;9.126;2022-08-19T03:05:04;20.70;;;16.87;;
19107;SDS011;9686;48.832;9.126;2022-08-19T03:07:30;19.70;;;16.90;;
19107;SDS011;9686;48.832;9.126;2022-08-19T03:09:56;21.33;;;18.27;;
19107;SDS011;9686;48.832;9.126;2022-08-19T03:12:21;22.33;;;18.17;;
19107;SDS011;9686;48.832;9.126;2022-08-19T03:14:46;23.63;;;17.37;;
19107;SDS011;9686;48.832;9.126;2022-08-19T03:17:12;20.10;;;17.47;;
19107;SDS011;9686;48.832;9.126;2022-08-19T03:19:38;22.17;;;17.33;;
19107;SDS011;9686;48.832;9.126;2022-08-19T03:22:03;22.40;;;17.33;;
19107;SDS011;9686;48.832;9.126;2022-08-19T03:24:30;21.63;;;17.40;;
19107;SDS011;9686;48.832;9.126;2022-08-19T03:26:56;21.57;;;18.87;;
19107;SDS011;9686;48.832;9.126;2022-08-19T03:29:23;20.50;;;17.50;;
19107;SDS011;9686;48.832;9.126;2022-08-19T03:31:49;20.80;;;17.90;;
19107;SDS011;9686;48.832;9.126;2022-08-19T03:34:18;20.43;;;18.23;;
19107;SDS011;9686;48.832;9.126;2022-08-19T03:36:45;24.00;;;18.97;;
19107;SDS011;9686;48.832;9.126;2022-08-19T03:39:11;25.27;;;19.33;;
19107;SDS011;9686;48.832;9.126;2022-08-19T03:41:38;20.20;;;18.03;;
19107;SDS011;9686;48.832;9.126;2022-08-19T03:44:05;18.67;;;16.73;;
19107;SDS011;9686;48.832;9.126;2022-08-19T03:46:33;22.87;;;19.03;;
19107;SDS011;9686;48.832;9.126;2022-08-19T03:49:01;23.40;;;19.70;;
19107;SDS011;9686;48.832;9.126;2022-08-19T03:51:33;24.40;;;18.37;;
19107;SDS011;9686;48.832;9.126;2022-08-19T03:54:02;23.73;;;19.53;;
19107;SDS011;9686;48.832;9.126;2022-08-19T03:56:29;22.77;;;18.97;;
19107;SDS011;9686;48.832;9.126;2022-08-19T03:58:55;21.83;;;17.40;;
19107;SDS011;9686;48.832;9.126;2022-08-19T04:01:23;22.43;;;18.70;;
19107;SDS011;9686;48.832;9.126;2022-08-19T04:03:51;23.87;;;19.57;;
19107;SDS011;9686;48.832;9.126;2022-08-19T04:06:19;23.13;;;20.07;;
19107;SDS011;9686;48.832;9.126;2022-08-19T04:08:47;23.57;;;19.30;;
19107;SDS011;9686;48.832;9.126;2022-08-19T04:11:16;22.97;;;20.50;;
19107;SDS011;9686;48.832;9.126;2022-08-19T04:13:46;23.27;;;18.30;;
19107;SDS011;9686;48.832;9.126;2022-08-19T04:16:12;22.53;;;19.33;;
19107;SDS011;9686;48.832;9.126;2022-08-19T04:18:39;23.80;;;19.87;;
19107;SDS011;9686;48.832;9.126;2022-08-19T04:21:06;22.07;;;18.63;;
19107;SDS011;9686;48.832;9.126;2022-08-19T04:23:32;25.10;;;20.17;;
19107;SDS011;9686;48.832;9.126;2022-08-19T04:26:00;21.80;;;19.43;;
19107;SDS011;9686;48.832;9.126;2022-08-19T04:28:26;23.50;;;19.73;;
19107;SDS011;9686;48.832;9.126;2022-08-19T04:30:52;20.77;;;18.23;;
19107;SDS011;9686;48.832;9.126;2022-08-19T04:33:20;24.73;;;20.43;;
19107;SDS011;9686;48.832;9.126;2022-08-19T04:35:49;23.23;;;18.97;;
19107;SDS011;9686;48.832;9.126;2022-08-19T04:38:16;24.10;;;20.27;;
19107;SDS011;9686;48.832;9.126;2022-08-19T04:40:43;25.03;;;20.70;;
19107;SDS011;9686;48.832;9.126;2022-08-19T04:43:29;24.57;;;21.27;;
19107;SDS011;9686;48.832;9.126;2022-08-19T04:45:55;23.40;;;18.90;;
19107;SDS011;9686;48.832;9.126;2022-08-19T04:48:21;21.33;;;19.03;;
19107;SDS011;9686;48.832;9.126;2022-08-19T04:50:54;20.10;;;17.97;;
19107;SDS011;9686;48.832;9.126;2022-08-19T04:53:25;25.77;;;20.30;;
19107;SDS011;9686;48.832;9.126;2022-08-19T04:55:53;26.77;;;20.43;;
19107;SDS011;9686;48.832;9.126;2022-08-19T04:58:23;22.83;;;20.10;;
19107;SDS011;9686;48.832;9.126;2022-08-19T05:00:50;22.20;;;19.87;;
19107;SDS011;9686;48.832;9.126;2022-08-19T05:03:16;22.43;;;18.50;;
19107;SDS011;9686;48.832;9.126;2022-08-19T05:05:42;22.53;;;19.40;;
19107;SDS011;9686;48.832;9.126;2022-08-19T05:08:09;22.23;;;19.63;;
19107;SDS011;9686;48.832;9.126;2022-08-19T05:10:36;23.57;;;19.50;;
19107;SDS011;9686;48.832;9.126;2022-08-19T05:13:03;23.17;;;19.57;;
19107;SDS011;9686;48.832;9.126;2022-08-19T05:15:28;25.33;;;19.83;;
19107;SDS011;9686;48.832;9.126;2022-08-19T05:17:54;22.03;;;19.57;;
19107;SDS011;9686;48.832;9.126;2022-08-19T05:20:38;21.93;;;19.57;;
19107;SDS011;9686;48.832;9.126;2022-08-19T05:23:22;20.97;;;18.27;;
19107;SDS011;9686;48.832;9.126;2022-08-19T05:25:48;21.40;;;19.10;;
19107;SDS011;9686;48.832;9.126;2022-08-19T05:28:15;24.20;;;21.00;;
19107;SDS011;9686;48.832;9.126;2022-08-19T05:30:40;21.17;;;18.80;;
19107;SDS011;9686;48.832;9.126;2022-08-19T05:33:08;23.93;;;20.00;;
19107;SDS011;9686;48.832;9.126;2022-08-19T05:35:35;21.97;;;19.53;;
19107;SDS011;9686;48.832;9.126;2022-08-19T05:38:02;22.13;;;19.60;;
19107;SDS011;9686;48.832;9.126;2022-08-19T05:40:27;21.70;;;19.40;;
19107;SDS011;9686;48.832;9.126;2022-08-19T05:42:53;26.17;;;19.87;;
19107;SDS011;9686;48.832;9.126;2022-08-19T05:45:18;20.73;;;18.50;;
19107;SDS011;9686;48.832;9.126;2022-08-19T05:47:46;22.77;;;20.30;;
19107;SDS011;9686;48.832;9.126;2022-08-19T05:50:12;23.77;;;20.60;;
19107;SDS011;9686;48.832;9.126;2022-08-19T05:52:37;22.00;;;18.80;;
19107;SDS011;9686;48.832;9.126;2022-08-19T05:55:03;22.03;;;19.73;;
19107;SDS011;9686;48.832;9.126;2022-08-19T05:57:29;23.53;;;19.43;;
19107;SDS011;9686;48.832;9.126;2022-08-19T05:59:55;23.40;;;19.47;;
19107;SDS011;9686;48.832;9.126;2022-08-19T06:02:21;21.97;;;19.20;;
19107;SDS011;9686;48.832;9.126;2022-08-19T06:04:47;21.13;;;18.10;;
19107;SDS011;9686;48.832;9.126;2022-08-19T06:07:12;20.87;;;18.67;;
19107;SDS011;9686;48.832;9.126;2022-08-19T06:09:38;22.63;;;19.57;;
19107;SDS011;9686;48.832;9.126;2022-08-19T06:12:05;22.57;;;19.80;;
19107;SDS011;9686;48.832;9.126;2022-08-19T06:14:32;22.90;;;18.90;;
19107;SDS011;9686;48.832;9.126;2022-08-19T06:16:59;23.30;;;19.23;;
19107;SDS011;9686;48.832;9.126;2022-08-19T06:19:27;22.50;;;17.97;;
19107;SDS011;9686;48.832;9.126;2022-08-19T06:21:55;23.57;;;20.43;;
19107;SDS011;9686;48.832;9.126;2022-08-19T06:24:23;21.30;;;18.63;;
19107;SDS011;9686;48.832;9.126;2022-08-19T06:26:51;20.93;;;18.50;;
19107;SDS011;9686;48.832;9.126;2022-08-19T06:29:19;21.20;;;18.90;;
19107;SDS011;9686;48.832;9.126;2022-08-19T06:31:47;21.27;;;18.80;;
19107;SDS011;9686;48.832;9.126;2022-08-19T06:34:14;21.63;;;19.30;;
19107;SDS011;9686;48.832;9.126;2022-08-19T06:36:42;22.27;;;17.57;;
19107;SDS011;9686;48.832;9.126;2022-08-19T06:39:11;21.47;;;19.03;;
19107;SDS011;9686;48.832;9.126;2022-08-19T06:41:40;23.70;;;19.07;;
19107;SDS011;9686;48.832;9.126;2022-08-19T06:44:07;20.50;;;17.90;;
19107;SDS011;9686;48.832;9.126;2022-08-19T06:46:33;21.27;;;19.07;;
19107;SDS011;9686;48.832;9.126;2022-08-19T06:48:59;23.87;;;19.87;;
19107;SDS011;9686;48.832;9.126;2022-08-19T06:51:24;20.53;;;18.53;;
19107;SDS011;9686;48.832;9.126;2022-08-19T06:53:51;21.40;;;18.07;;
19107;SDS011;9686;48.832;9.126;2022-08-19T06:56:20;20.17;;;18.17;;
19107;SDS011;9686;48.832;9.126;2022-08-19T06:58:49;23.07;;;18.87;;
19107;SDS011;9686;48.832;9.126;2022-08-19T07:01:17;24.70;;;18.97;;
19107;SDS011;9686;48.832;9.126;2022-08-19T07:03:44;22.20;;;19.80;;
19107;SDS011;9686;48.832;9.126;2022-08-19T07:06:12;22.13;;;18.30;;
19107;SDS011;9686;48.832;9.126;2022-08-19T07:08:42;20.77;;;18.07;;
19107;SDS011;9686;48.832;9.126;2022-08-19T07:11:08;22.63;;;19.47;;
19107;SDS011;9686;48.832;9.126;2022-08-19T07:13:36;21.50;;;19.17;;
19107;SDS011;9686;48.832;9.126;2022-08-19T07:16:09;20.67;;;18.27;;
19107;SDS011;9686;48.832;9.126;2022-08-19T07:18:37;20.63;;;18.50;;
19107;SDS011;9686;48.832;9.126;2022-08-19T07:21:04;20.97;;;18.63;;
19107;SDS011;9686;48.832;9.126;2022-08-19T07:23:31;20.80;;;18.57;;
19107;SDS011;9686;48.832;9.126;2022-08-19T07:25:57;23.80;;;18.30;;
19107;SDS011;9686;48.832;9.126;2022-08-19T07:28:23;20.53;;;17.20;;
19107;SDS011;9686;48.832;9.126;2022-08-19T07:30:49;19.77;;;17.30;;
19107;SDS011;9686;48.832;9.126;2022-08-19T07:33:15;20.37;;;17.40;;
19107;SDS011;9686;48.832;9.126;2022-08-19T07:35:42;21.17;;;17.80;;
19107;SDS011;9686;48.832;9.126;2022-08-19T07:38:08;21.33;;;17.50;;
19107;SDS011;9686;48.832;9.126;2022-08-19T07:40:34;23.30;;;17.93;;
19107;SDS011;9686;48.832;9.126;2022-08-19T07:42:59;19.30;;;17.20;;
19107;SDS011;9686;48.832;9.126;2022-08-19T07:45:24;19.67;;;17.07;;
19107;SDS011;9686;48.832;9.126;2022-08-19T07:47:50;18.40;;;16.40;;
19107;SDS011;9686;48.832;9.126;2022-08-19T07:50:16;18.73;;;16.50;;
19107;SDS011;9686;48.832;9.126;2022-08-19T07:52:43;18.77;;;16.77;;
19107;SDS011;9686;48.832;9.126;2022-08-19T07:55:09;20.57;;;16.20;;
19107;SDS011;9686;48.832;9.126;2022-08-19T07:57:35;17.93;;;16.03;;
19107;SDS011;9686;48.832;9.126;2022-08-19T08:00:00;18.63;;;15.57;;
19107;SDS011;9686;48.832;9.126;2022-08-19T08:02:26;20.17;;;16.87;;
19107;SDS011;9686;48.832;9.126;2022-08-19T08:04:51;22.03;;;16.20;;
19107;SDS011;9686;48.832;9.126;2022-08-19T08:07:35;20.10;;;16.70;;
19107;SDS011;9686;48.832;9.126;2022-08-19T08:10:19;20.60;;;17.33;;
19107;SDS011;9686;48.832;9.126;2022-08-19T08:12:45;17.87;;;15.97;;
19107;SDS011;9686;48.832;9.126;2022-08-19T08:15:11;17.93;;;15.30;;
19107;SDS011;9686;48.832;9.126;2022-08-19T08:17:43;19.03;;;17.03;;
19107;SDS011;9686;48.832;9.126;2022-08-19T08:20:09;18.97;;;16.67;;
19107;SDS011;9686;48.832;9.126;2022-08-19T08:22:35;16.97;;;15.10;;
19107;SDS011;9686;48.832;9.126;2022-08-19T08:25:20;20.90;;;15.60;;
19107;SDS011;9686;48.832;9.126;2022-08-19T08:27:49;17.50;;;15.10;;
19107;SDS011;9686;48.832;9.126;2022-08-19T08:30:18;16.30;;;14.40;;
19107;SDS011;9686;48.832;9.126;2022-08-19T08:32:46;16.90;;;15.10;;
19107;SDS011;9686;48.832;9.126;2022-08-19T08:35:12;17.77;;;14.83;;
19107;SDS011;9686;48.832;9.126;2022-08-19T08:37:39;18.73;;;15.57;;
19107;SDS011;9686;48.832;9.126;2022-08-19T08:40:05;17.73;;;15.63;;
19107;SDS011;9686;48.832;9.126;2022-08-19T08:42:39;18.63;;;16.23;;
19107;SDS011;9686;48.832;9.126;2022-08-19T08:45:13;16.00;;;14.40;;
19107;SDS011;9686;48.832;9.126;2022-08-19T08:47:43;17.93;;;15.57;;
19107;SDS011;9686;48.832;9.126;2022-08-19T08:50:17;16.27;;;13.63;;
19107;SDS011;9686;48.832;9.126;2022-08-19T08:52:51;17.50;;;15.63;;
19107;SDS011;9686;48.832;9.126;2022-08-19T08:55:22;15.23;;;13.50;;
19107;SDS011;9686;48.832;9.126;2022-08-19T08:57:53;17.87;;;14.93;;
19107;SDS011;9686;48.832;9.126;2022-08-19T09:00:31;17.60;;;14.53;;
19107;SDS011;9686;48.832;9.126;2022-08-19T09:03:03;15.63;;;13.83;;
19107;SDS011;9686;48.832;9.126;2022-08-19T09:05:42;21.87;;;14.57;;
19107;SDS011;9686;48.832;9.126;2022-08-19T09:08:24;19.17;;;14.73;;
19107;SDS011;9686;48.832;9.126;2022-08-19T09:11:03;17.93;;;14.17;;
19107;SDS011;9686;48.832;9.126;2022-08-19T09:16:11;18.00;;;12.93;;
19107;SDS011;9686;48.832;9.126;2022-08-19T09:18:42;18.07;;;14.00;;
19107;SDS011;9686;48.832;9.126;2022-08-19T09:21:17;17.07;;;13.37;;
19107;SDS011;9686;48.832;9.126;2022-08-19T09:23:45;13.97;;;12.37;;
19107;SDS011;9686;48.832;9.126;2022-08-19T09:26:11;15.33;;;13.23;;
19107;SDS011;9686;48.832;9.126;2022-08-19T09:28:40;14.30;;;12.80;;
19107;SDS011;9686;48.832;9.126;2022-08-19T09:31:16;13.80;;;12.13;;
19107;SDS011;9686;48.832;9.126;2022-08-19T09:33:44;14.23;;;12.57;;
19107;SDS011;9686;48.832;9.126;2022-08-19T09:36:13;14.90;;;13.30;;
19107;SDS011;9686;48.832;9.126;2022-08-19T09:38:40;15.97;;;12.80;;
19107;SDS011;9686;48.832;9.126;2022-08-19T09:41:07;14.37;;;12.13;;
19107;SDS011;9686;48.832;9.126;2022-08-19T09:43:38;16.10;;;12.73;;
19107;SDS011;9686;48.832;9.126;2022-08-19T09:46:05;15.80;;;12.50;;
19107;SDS011;9686;48.832;9.126;2022-08-19T09:48:34;12.70;;;11.40;;
19107;SDS011;9686;48.832;9.126;2022-08-19T09:51:13;12.83;;;11.50;;
19107;SDS011;9686;48.832;9.126;2022-08-19T09:53:45;12.83;;;10.70;;
19107;SDS011;9686;48.832;9.126;2022-08-19T09:56:11;13.80;;;11.10;;
19107;SDS011;9686;48.832;9.126;2022-08-19T09:58:38;13.23;;;10.83;;
19107;SDS011;9686;48.832;9.126;2022-08-19T10:01:04;15.60;;;11.60;;
19107;SDS011;9686;48.832;9.126;2022-08-19T10:03:31;13.27;;;11.23;;
19107;SDS011;9686;48.832;9.126;2022-08-19T10:05:59;14.23;;;11.87;;
19107;SDS011;9686;48.832;9.126;2022-08-19T10:08:27;18.17;;;11.47;;
19107;SDS011;9686;48.832;9.126;2022-08-19T10:10:54;11.20;;;10.07;;
19107;SDS011;9686;48.832;9.126;2022-08-19T10:13:21;12.03;;;10.70;;
19107;SDS011;9686;48.832;9.126;2022-08-19T10:15:50;14.57;;;10.90;;
19107;SDS011;9686;48.832;9.126;2022-08-19T10:18:16;11.93;;;10.57;;
19107;SDS011;9686;48.832;9.126;2022-08-19T10:20:43;12.37;;;11.13;;
19107;SDS011;9686;48.832;9.126;2022-08-19T10:23:10;10.33;;;9.33;;
19107;SDS011;9686;48.832;9.126;2022-08-19T10:25:36;10.97;;;9.80;;
19107;SDS011;9686;48.832;9.126;2022-08-19T10:28:02;12.10;;;10.80;;
19107;SDS011;9686;48.832;9.126;2022-08-19T10:30:28;12.73;;;10.17;;
19107;SDS011;9686;48.832;9.126;2022-08-19T10:32:53;11.77;;;10.13;;
19107;SDS011;9686;48.832;9.126;2022-08-19T10:35:19;12.40;;;10.33;;
19107;SDS011;9686;48.832;9.126;2022-08-19T10:37:45;13.53;;;10.00;;
19107;SDS011;9686;48.832;9.126;2022-08-19T10:40:10;11.17;;;9.53;;
19107;SDS011;9686;48.832;9.126;2022-08-19T10:42:36;11.53;;;9.33;;
19107;SDS011;9686;48.832;9.126;2022-08-19T10:45:02;10.73;;;8.90;;
19107;SDS011;9686;48.832;9.126;2022-08-19T10:47:28;11.63;;;8.73;;
19107;SDS011;9686;48.832;9.126;2022-08-19T10:49:54;9.43;;;8.03;;
19107;SDS011;9686;48.832;9.126;2022-08-19T10:52:43;12.23;;;8.93;;
19107;SDS011;9686;48.832;9.126;2022-08-19T10:55:10;10.07;;;8.50;;
19107;SDS011;9686;48.832;9.126;2022-08-19T10:57:54;11.83;;;8.50;;
19107;SDS011;9686;48.832;9.126;2022-08-19T11:00:19;11.20;;;8.50;;
19107;SDS011;9686;48.832;9.126;2022-08-19T11:02:45;9.40;;;8.37;;
19107;SDS011;9686;48.832;9.126;2022-08-19T11:05:11;10.70;;;8.33;;
19107;SDS011;9686;48.832;9.126;2022-08-19T11:07:37;8.73;;;7.43;;
19107;SDS011;9686;48.832;9.126;2022-08-19T11:10:04;9.90;;;8.03;;
19107;SDS011;9686;48.832;9.126;2022-08-19T11:12:30;8.83;;;7.40;;
19107;SDS011;9686;48.832;9.126;2022-08-19T11:14:56;8.40;;;7.60;;
19107;SDS011;9686;48.832;9.126;2022-08-19T11:17:21;9.07;;;7.43;;
19107;SDS011;9686;48.832;9.126;2022-08-19T11:19:48;9.90;;;8.23;;
19107;SDS011;9686;48.832;9.126;2022-08-19T11:22:14;8.43;;;7.10;;
19107;SDS011;9686;48.832;9.126;2022-08-19T11:24:40;8.73;;;7.77;;
19107;SDS011;9686;48.832;9.126;2022-08-19T11:27:06;7.70;;;6.90;;
19107;SDS011;9686;48.832;9.126;2022-08-19T11:29:34;10.30;;;6.97;;
19107;SDS011;9686;48.832;9.126;2022-08-19T11:32:06;8.43;;;6.23;;
19107;SDS011;9686;48.832;9.126;2022-08-19T11:34:34;8.53;;;7.73;;
19107;SDS011;9686;48.832;9.126;2022-08-19T11:37:00;8.13;;;7.33;;
19107;SDS011;9686;48.832;9.126;2022-08-19T11:39:27;7.63;;;6.93;;
19107;SDS011;9686;48.832;9.126;2022-08-19T11:41:54;8.70;;;7.90;;
19107;SDS011;9686;48.832;9.126;2022-08-19T11:44:19;7.47;;;6.73;;
19107;SDS011;9686;48.832;9.126;2022-08-19T11:46:45;8.00;;;7.03;;
19107;SDS011;9686;48.832;9.126;2022-08-19T11:49:11;7.67;;;6.87;;
19107;SDS011;9686;48.832;9.126;2022-08-19T11:51:38;8.70;;;7.80;;
19107;SDS011;9686;48.832;9.126;2022-08-19T11:54:04;9.90;;;7.47;;
19107;SDS011;9686;48.832;9.126;2022-08-19T11:56:30;8.53;;;7.63;;
19107;SDS011;9686;48.832;9.126;2022-08-19T11:58:56;8.53;;;7.63;;
19107;SDS011;9686;48.832;9.126;2022-08-19T12:01:23;8.33;;;7.53;;
19107;SDS011;9686;48.832;9.126;2022-08-19T12:03:50;11.80;;;7.73;;
19107;SDS011;9686;48.832;9.126;2022-08-19T12:06:20;9.23;;;7.00;;
19107;SDS011;9686;48.832;9.126;2022-08-19T12:08:52;7.50;;;6.67;;
19107;SDS011;9686;48.832;9.126;2022-08-19T12:11:19;8.47;;;7.70;;
19107;SDS011;9686;48.832;9.126;2022-08-19T12:13:45;7.80;;;7.10;;
19107;SDS011;9686;48.832;9.126;2022-08-19T12:16:15;9.63;;;7.40;;
19107;SDS011;9686;48.832;9.126;2022-08-19T12:18:48;7.50;;;6.70;;
19107;SDS011;9686;48.832;9.126;2022-08-19T12:21:16;7.83;;;6.97;;
19107;SDS011;9686;48.832;9.126;2022-08-19T12:23:46;9.77;;;6.47;;
19107;SDS011;9686;48.832;9.126;2022-08-19T12:26:12;9.13;;;6.33;;
19107;SDS011;9686;48.832;9.126;2022-08-19T12:28:38;7.23;;;6.17;;
19107;SDS011;9686;48.832;9.126;2022-08-19T12:31:03;9.20;;;6.93;;
19107;SDS011;9686;48.832;9.126;2022-08-19T12:33:29;8.07;;;7.27;;
19107;SDS011;9686;48.832;9.126;2022-08-19T12:35:59;7.10;;;6.40;;
19107;SDS011;9686;48.832;9.126;2022-08-19T12:38:27;7.10;;;5.97;;
19107;SDS011;9686;48.832;9.126;2022-08-19T12:40:52;7.50;;;6.47;;
19107;SDS011;9686;48.832;9.126;2022-08-19T12:43:18;8.40;;;6.80;;
19107;SDS011;9686;48.832;9.126;2022-08-19T12:45:45;7.53;;;6.07;;
19107;SDS011;9686;48.832;9.126;2022-08-19T12:48:11;6.73;;;6.13;;
19107;SDS011;9686;48.832;9.126;2022-08-19T12:50:39;9.33;;;6.73;;
19107;SDS011;9686;48.832;9.126;2022-08-19T12:53:05;8.07;;;6.03;;
19107;SDS011;9686;48.832;9.126;2022-08-19T12:55:31;6.23;;;5.43;;
19107;SDS011;9686;48.832;9.126;2022-08-19T12:57:56;7.93;;;6.37;;
19107;SDS011;9686;48.832;9.126;2022-08-19T13:00:22;6.60;;;5.93;;
19107;SDS011;9686;48.832;9.126;2022-08-19T13:02:48;6.53;;;5.50;;
19107;SDS011;9686;48.832;9.126;2022-08-19T13:05:22;6.57;;;5.07;;
19107;SDS011;9686;48.832;9.126;2022-08-19T13:07:50;6.13;;;5.57;;
19107;SDS011;9686;48.832;9.126;2022-08-19T13:10:18;5.73;;;5.23;;
19107;SDS011;9686;48.832;9.126;2022-08-19T13:12:46;5.93;;;5.33;;
19107;SDS011;9686;48.832;9.126;2022-08-19T13:15:15;7.30;;;5.33;;
19107;SDS011;9686;48.832;9.126;2022-08-19T13:17:45;7.07;;;5.53;;
19107;SDS011;9686;48.832;9.126;2022-08-19T13:20:14;6.20;;;5.60;;
19107;SDS011;9686;48.832;9.126;2022-08-19T13:22:40;5.47;;;4.97;;
19107;SDS011;9686;48.832;9.126;2022-08-19T13:25:06;6.63;;;5.40;;
19107;SDS011;9686;48.832;9.126;2022-08-19T13:27:32;5.63;;;5.13;;
19107;SDS011;9686;48.832;9.126;2022-08-19T13:29:57;6.03;;;5.53;;
19107;SDS011;9686;48.832;9.126;2022-08-19T13:32:41;5.97;;;5.20;;
19107;SDS011;9686;48.832;9.126;2022-08-19T13:35:25;6.00;;;5.30;;
19107;SDS011;9686;48.832;9.126;2022-08-19T13:37:50;6.33;;;5.73;;
19107;SDS011;9686;48.832;9.126;2022-08-19T13:40:18;6.63;;;5.50;;
19107;SDS011;9686;48.832;9.126;2022-08-19T13:42:47;6.20;;;5.63;;
19107;SDS011;9686;48.832;9.126;2022-08-19T13:45:15;9.60;;;7.77;;
19107;SDS011;9686;48.832;9.126;2022-08-19T13:47:44;12.43;;;11.10;;
19107;SDS011;9686;48.832;9.126;2022-08-19T13:50:15;15.20;;;13.50;;
19107;SDS011;9686;48.832;9.126;2022-08-19T13:52:42;20.50;;;13.67;;
19107;SDS011;9686;48.832;9.126;2022-08-19T13:55:09;19.57;;;14.60;;
19107;SDS011;9686;48.832;9.126;2022-08-19T13:57:36;18.33;;;15.30;;
19107;SDS011;9686;48.832;9.126;2022-08-19T14:00:04;20.17;;;15.20;;
19107;SDS011;9686;48.832;9.126;2022-08-19T14:02:33;17.33;;;15.43;;
19107;SDS011;9686;48.832;9.126;2022-08-19T14:04:58;16.90;;;15.17;;
19107;SDS011;9686;48.832;9.126;2022-08-19T14:07:24;17.53;;;15.50;;
19107;SDS011;9686;48.832;9.126;2022-08-19T14:09:49;19.00;;;15.77;;
19107;SDS011;9686;48.832;9.126;2022-08-19T14:12:18;17.93;;;15.47;;
19107;SDS011;9686;48.832;9.126;2022-08-19T14:14:45;17.60;;;15.43;;
19107;SDS011;9686;48.832;9.126;2022-08-19T14:17:10;19.43;;;16.47;;
19107;SDS011;9686;48.832;9.126;2022-08-19T14:19:36;17.80;;;15.93;;
19107;SDS011;9686;48.832;9.126;2022-08-19T14:22:01;21.00;;;16.00;;
19107;SDS011;9686;48.832;9.126;2022-08-19T14:24:27;18.57;;;16.63;;
19107;SDS011;9686;48.832;9.126;2022-08-19T14:26:52;16.67;;;14.97;;
19107;SDS011;9686;48.832;9.126;2022-08-19T14:29:18;16.63;;;13.87;;
19107;SDS011;9686;48.832;9.126;2022-08-19T14:31:43;16.80;;;14.97;;
19107;SDS011;9686;48.832;9.126;2022-08-19T14:34:09;15.50;;;13.90;;
19107;SDS011;9686;48.832;9.126;2022-08-19T14:36:35;14.97;;;13.23;;
19107;SDS011;9686;48.832;9.126;2022-08-19T14:39:01;15.17;;;13.67;;
19107;SDS011;9686;48.832;9.126;2022-08-19T14:41:27;17.10;;;15.50;;
19107;SDS011;9686;48.832;9.126;2022-08-19T14:43:53;15.53;;;14.03;;
19107;SDS011;9686;48.832;9.126;2022-08-19T14:46:20;14.27;;;12.87;;